createdAt,value
2019-01-14T00:02:18.911Z,5.22
2019-01-14T00:04:47.658Z,5.15
2019-01-14T00:07:16.329Z,5.07
2019-01-14T00:09:44.967Z,5.02
2019-01-14T00:12:13.623Z,4.99
2019-01-14T00:14:42.286Z,5.03
2019-01-14T00:17:11.611Z,5.07
2019-01-14T00:19:40.398Z,5.04
2019-01-14T00:22:09.203Z,5.01
2019-01-14T00:24:37.868Z,4.91
2019-01-14T00:27:06.478Z,4.81
2019-01-14T00:29:35.210Z,4.75
2019-01-14T00:32:03.924Z,4.62
2019-01-14T00:34:32.849Z,4.49
2019-01-14T00:37:01.588Z,4.48
2019-01-14T00:39:30.598Z,4.41
2019-01-14T00:41:59.498Z,4.31
2019-01-14T00:44:28.801Z,4.26
2019-01-14T00:46:57.782Z,4.24
2019-01-14T00:49:26.519Z,4.26
2019-01-14T00:51:55.575Z,4.31
2019-01-14T00:54:24.563Z,4.33
2019-01-14T00:56:53.687Z,4.36
2019-01-14T00:59:22.331Z,4.38
2019-01-14T01:01:51.023Z,4.43
2019-01-14T01:04:19.731Z,4.44
2019-01-14T01:06:48.669Z,4.52
2019-01-14T01:09:17.450Z,4.46
2019-01-14T01:11:46.083Z,4.50
2019-01-14T01:14:14.730Z,4.51
2019-01-14T01:16:43.469Z,4.57
2019-01-14T01:19:12.190Z,4.58
2019-01-14T01:21:41.019Z,4.59
2019-01-14T01:24:09.622Z,4.54
2019-01-14T01:26:38.278Z,4.47
2019-01-14T01:29:06.964Z,4.42
2019-01-14T01:31:35.592Z,4.33
2019-01-14T01:34:06.076Z,4.35
2019-01-14T01:36:35.286Z,4.42
2019-01-14T01:39:06.993Z,4.38
2019-01-14T01:41:35.696Z,4.43
2019-01-14T01:44:04.493Z,4.48
2019-01-14T01:46:33.291Z,4.45
2019-01-14T01:49:01.927Z,4.34
2019-01-14T01:51:30.608Z,4.35
2019-01-14T01:53:59.626Z,4.38
2019-01-14T01:56:28.351Z,4.40
2019-01-14T01:58:57.088Z,4.35
2019-01-14T02:01:25.732Z,4.31
2019-01-14T02:03:54.389Z,4.31
2019-01-14T02:06:23.051Z,4.39
2019-01-14T02:08:51.688Z,4.44
2019-01-14T02:11:20.397Z,4.45
2019-01-14T02:13:49.631Z,4.37
2019-01-14T02:16:18.331Z,4.43
2019-01-14T02:18:46.954Z,4.47
2019-01-14T02:21:15.903Z,4.54
2019-01-14T02:23:44.539Z,4.60
2019-01-14T02:26:13.172Z,4.65
2019-01-14T02:28:41.822Z,4.67
2019-01-14T02:31:10.720Z,4.69
2019-01-14T02:33:39.359Z,4.67
2019-01-14T02:36:08.076Z,4.69
2019-01-14T02:38:36.726Z,4.67
2019-01-14T02:41:05.350Z,4.67
2019-01-14T02:43:34.008Z,4.73
2019-01-14T02:46:02.632Z,4.77
2019-01-14T02:48:31.258Z,4.80
2019-01-14T02:51:00.216Z,4.80
2019-01-14T02:53:28.916Z,4.82
2019-01-14T02:55:57.632Z,4.78
2019-01-14T02:58:26.267Z,4.75
2019-01-14T03:00:54.903Z,4.74
2019-01-14T03:03:23.543Z,4.75
2019-01-14T03:05:52.363Z,4.77
2019-01-14T03:08:21.017Z,4.81
2019-01-14T03:10:49.655Z,4.80
2019-01-14T03:13:18.300Z,4.79
2019-01-14T03:15:46.923Z,4.75
2019-01-14T03:18:15.556Z,4.72
2019-01-14T03:20:44.198Z,4.70
2019-01-14T03:23:12.838Z,4.64
2019-01-14T03:25:41.470Z,4.64
2019-01-14T03:28:10.124Z,4.67
2019-01-14T03:30:38.754Z,4.73
2019-01-14T03:33:07.393Z,4.71
2019-01-14T03:35:36.022Z,4.76
2019-01-14T03:38:04.654Z,4.73
2019-01-14T03:40:33.292Z,4.78
2019-01-14T03:43:02.309Z,4.79
2019-01-14T03:45:30.943Z,4.84
2019-01-14T03:47:59.635Z,4.85
2019-01-14T03:50:28.312Z,4.83
2019-01-14T03:52:57.080Z,4.85
2019-01-14T03:55:26.127Z,4.89
2019-01-14T03:57:54.841Z,4.88
2019-01-14T04:00:23.568Z,4.90
2019-01-14T04:02:52.280Z,4.92
2019-01-14T04:05:21.103Z,4.87
2019-01-14T04:07:49.819Z,4.81
2019-01-14T04:10:18.570Z,4.85
2019-01-14T04:12:47.305Z,4.87
2019-01-14T04:15:16.995Z,4.86
2019-01-14T04:17:45.709Z,4.83
2019-01-14T04:20:14.987Z,4.82
2019-01-14T04:22:44.775Z,4.87
2019-01-14T04:25:13.487Z,4.82
2019-01-14T04:27:42.150Z,4.86
2019-01-14T04:30:12.364Z,4.86
2019-01-14T04:32:41.000Z,4.83
2019-01-14T04:35:10.078Z,4.80
2019-01-14T04:37:39.010Z,4.77
2019-01-14T04:40:08.644Z,4.81
2019-01-14T04:42:37.451Z,4.84
2019-01-14T04:45:06.603Z,4.83
2019-01-14T04:47:35.314Z,4.80
2019-01-14T04:50:05.254Z,4.83
2019-01-14T04:52:34.348Z,4.78
2019-01-14T04:55:02.999Z,4.80
2019-01-14T04:57:31.657Z,4.79
2019-01-14T05:00:00.301Z,4.78
2019-01-14T05:02:28.981Z,4.73
2019-01-14T05:04:57.619Z,4.64
2019-01-14T05:07:29.767Z,4.59
2019-01-14T05:09:56.583Z,4.56
2019-01-14T05:12:25.244Z,4.49
2019-01-14T05:14:54.225Z,4.51
2019-01-14T05:17:23.255Z,4.54
2019-01-14T05:19:51.895Z,4.59
2019-01-14T05:22:20.523Z,4.59
2019-01-14T05:24:49.159Z,4.60
2019-01-14T05:27:17.831Z,4.55
2019-01-14T05:29:46.461Z,4.51
2019-01-14T05:32:15.178Z,4.51
2019-01-14T05:34:43.838Z,4.46
2019-01-14T05:37:12.470Z,4.47
2019-01-14T05:39:41.106Z,4.48
2019-01-14T05:42:10.078Z,4.48
2019-01-14T05:44:38.716Z,4.45
2019-01-14T05:47:07.347Z,4.47
2019-01-14T05:49:35.996Z,4.49
2019-01-14T05:52:04.706Z,4.43
2019-01-14T05:54:33.334Z,4.43
2019-01-14T05:57:03.152Z,4.36
2019-01-14T05:59:31.778Z,4.38
2019-01-14T06:02:00.421Z,4.36
2019-01-14T06:04:29.080Z,4.37
2019-01-14T06:06:57.716Z,4.46
2019-01-14T06:09:26.360Z,4.44
2019-01-14T06:11:55.012Z,4.43
2019-01-14T06:14:23.641Z,4.36
2019-01-14T06:16:52.276Z,4.22
2019-01-14T06:19:21.283Z,4.04
2019-01-14T06:21:49.919Z,3.88
2019-01-14T06:24:18.563Z,3.80
2019-01-14T06:26:47.234Z,3.73
2019-01-14T06:29:15.859Z,3.69
2019-01-14T06:31:44.491Z,3.61
2019-01-14T06:34:13.219Z,3.59
2019-01-14T06:36:41.863Z,3.54
2019-01-14T06:39:10.515Z,3.50
2019-01-14T06:41:39.490Z,3.52
2019-01-14T06:44:08.122Z,3.54
2019-01-14T06:46:36.757Z,3.56
2019-01-14T06:49:05.398Z,3.58
2019-01-14T06:51:34.026Z,3.55
2019-01-14T06:54:02.730Z,3.53
2019-01-14T06:56:31.451Z,3.52
2019-01-14T06:59:00.098Z,3.49
2019-01-14T07:01:28.730Z,3.50
2019-01-14T07:03:57.370Z,3.41
2019-01-14T07:06:26.002Z,3.51
2019-01-14T07:08:55.024Z,3.54
2019-01-14T07:11:23.931Z,3.49
2019-01-14T07:13:52.592Z,3.53
2019-01-14T07:16:21.303Z,3.58
2019-01-14T07:18:49.948Z,3.71
2019-01-14T07:21:18.576Z,3.79
2019-01-14T07:23:47.275Z,3.91
2019-01-14T07:26:15.923Z,3.99
2019-01-14T07:28:44.559Z,4.11
2019-01-14T07:31:13.188Z,4.23
2019-01-14T07:33:41.854Z,4.26
2019-01-14T07:36:10.839Z,4.43
2019-01-14T07:38:39.458Z,4.48
2019-01-14T07:41:08.187Z,4.49
2019-01-14T07:43:36.818Z,4.49
2019-01-14T07:46:05.459Z,4.55
2019-01-14T07:48:35.082Z,4.57
2019-01-14T07:51:03.799Z,4.54
2019-01-14T07:53:32.438Z,4.58
2019-01-14T07:56:01.109Z,4.56
2019-01-14T07:58:30.116Z,4.57
2019-01-14T08:00:58.746Z,4.54
2019-01-14T08:03:27.388Z,4.57
2019-01-14T08:05:56.052Z,4.55
2019-01-14T08:08:25.670Z,4.60
2019-01-14T08:10:54.320Z,4.62
2019-01-14T08:13:22.950Z,4.58
2019-01-14T08:15:51.586Z,4.63
2019-01-14T08:18:20.235Z,4.65
2019-01-14T08:20:48.967Z,4.66
2019-01-14T08:23:17.599Z,4.68
2019-01-14T08:25:46.611Z,4.73
2019-01-14T08:28:15.247Z,4.75
2019-01-14T08:30:43.899Z,4.79
2019-01-14T08:33:12.549Z,4.77
2019-01-14T08:35:41.179Z,4.81
2019-01-14T08:38:10.217Z,4.85
2019-01-14T08:40:39.131Z,4.75
2019-01-14T08:43:07.768Z,4.89
2019-01-14T08:45:36.402Z,4.88
2019-01-14T08:48:05.192Z,4.89
2019-01-14T08:50:33.904Z,4.79
2019-01-14T08:53:02.549Z,4.84
2019-01-14T08:55:31.254Z,4.81
2019-01-14T08:57:59.927Z,4.89
2019-01-14T09:00:28.678Z,4.90
2019-01-14T09:02:57.343Z,4.89
2019-01-14T09:05:25.980Z,4.99
2019-01-14T09:07:54.610Z,5.08
2019-01-14T09:10:26.781Z,5.13
2019-01-14T09:12:55.573Z,5.14
2019-01-14T09:15:24.660Z,5.19
2019-01-14T09:17:53.316Z,5.22
2019-01-14T09:20:23.031Z,5.07
2019-01-14T09:22:51.815Z,5.21
2019-01-14T09:25:20.474Z,5.09
2019-01-14T09:27:49.114Z,5.23
2019-01-14T09:30:18.923Z,5.28
2019-01-14T09:32:47.580Z,5.30
2019-01-14T09:35:16.308Z,5.47
2019-01-14T09:37:45.028Z,5.36
2019-01-14T09:40:15.603Z,5.31
2019-01-14T09:42:44.586Z,5.23
2019-01-14T09:45:13.299Z,5.25
2019-01-14T09:47:42.071Z,5.36
2019-01-14T09:50:11.566Z,5.29
2019-01-14T09:52:40.272Z,5.38
2019-01-14T09:55:10.455Z,5.28
2019-01-14T09:57:39.158Z,5.40
2019-01-14T10:00:08.237Z,5.40
2019-01-14T10:02:37.154Z,5.39
2019-01-14T10:05:06.534Z,5.23
2019-01-14T10:07:35.438Z,5.29
2019-01-14T10:10:04.656Z,5.22
2019-01-14T10:12:33.278Z,5.20
2019-01-14T10:15:01.920Z,5.28
2019-01-14T10:17:31.566Z,5.28
2019-01-14T10:20:00.258Z,5.20
2019-01-14T10:22:29.292Z,5.31
2019-01-14T10:24:57.952Z,5.40
2019-01-14T10:27:26.603Z,5.49
2019-01-14T10:29:55.254Z,5.73
2019-01-14T10:32:24.027Z,5.72
2019-01-14T10:34:52.735Z,5.59
2019-01-14T10:37:22.867Z,5.77
2019-01-14T10:39:51.799Z,5.86
2019-01-14T10:42:20.435Z,5.82
2019-01-14T10:44:49.082Z,5.64
2019-01-14T10:47:17.751Z,5.47
2019-01-14T10:49:46.398Z,5.48
2019-01-14T10:52:15.179Z,5.53
2019-01-14T10:54:43.827Z,5.42
2019-01-14T10:57:12.543Z,5.49
2019-01-14T10:59:41.170Z,5.43
2019-01-14T11:02:10.226Z,5.93
2019-01-14T11:04:38.851Z,5.93
2019-01-14T11:07:07.896Z,5.65
2019-01-14T11:09:36.614Z,5.48
2019-01-14T11:12:05.804Z,5.22
2019-01-14T11:14:34.510Z,5.17
2019-01-14T11:17:03.162Z,5.13
2019-01-14T11:19:32.342Z,4.97
2019-01-14T11:22:00.977Z,4.91
2019-01-14T11:24:49.447Z,5.03
2019-01-14T11:27:18.836Z,5.03
2019-01-14T11:29:54.302Z,4.93
2019-01-14T11:32:23.151Z,4.91
2019-01-14T11:34:51.810Z,4.72
2019-01-14T11:37:20.526Z,4.78
2019-01-14T11:39:49.234Z,4.69
2019-01-14T11:42:17.870Z,4.53
2019-01-14T11:44:46.536Z,4.50
2019-01-14T11:47:16.287Z,4.59
2019-01-14T11:49:46.215Z,4.57
2019-01-14T11:52:14.934Z,4.36
2019-01-14T11:54:43.580Z,4.44
2019-01-14T11:57:12.227Z,4.47
2019-01-14T11:59:40.872Z,4.43
2019-01-14T12:02:09.515Z,4.38
2019-01-14T12:04:38.200Z,4.31
2019-01-14T12:07:06.871Z,4.08
2019-01-14T12:09:35.855Z,3.97
2019-01-14T12:12:04.745Z,3.64
2019-01-14T12:14:33.384Z,3.51
2019-01-14T12:17:02.031Z,3.42
2019-01-14T12:19:30.666Z,3.44
2019-01-14T12:21:59.319Z,3.55
2019-01-14T12:24:27.975Z,3.59
2019-01-14T12:26:56.615Z,3.49
2019-01-14T12:29:25.334Z,3.41
2019-01-14T12:31:53.970Z,3.33
2019-01-14T12:34:22.612Z,3.30
2019-01-14T12:36:51.878Z,3.38
2019-01-14T12:39:20.606Z,3.44
2019-01-14T12:41:51.152Z,3.26
2019-01-14T12:44:20.024Z,3.32
2019-01-14T12:46:49.818Z,3.39
2019-01-14T12:49:18.536Z,3.26
2019-01-14T12:51:47.195Z,3.45
2019-01-14T12:54:15.853Z,3.59
2019-01-14T12:56:44.478Z,3.46
2019-01-14T12:59:13.144Z,3.67
2019-01-14T13:01:41.793Z,3.64
2019-01-14T13:04:10.429Z,3.55
2019-01-14T13:06:39.460Z,3.63
2019-01-14T13:09:09.151Z,3.65
2019-01-14T13:11:37.793Z,3.72
2019-01-14T13:14:06.435Z,3.79
2019-01-14T13:16:35.083Z,3.86
2019-01-14T13:19:03.753Z,3.92
2019-01-14T13:21:32.575Z,3.84
2019-01-14T13:24:01.281Z,3.93
2019-01-14T13:26:29.994Z,4.09
2019-01-14T13:28:58.923Z,4.09
2019-01-14T13:31:27.559Z,4.24
2019-01-14T13:33:56.200Z,4.41
2019-01-14T13:36:24.865Z,5.31
2019-01-14T13:38:53.572Z,5.67
2019-01-14T13:41:22.230Z,5.28
2019-01-14T13:43:51.058Z,5.62
2019-01-14T13:46:26.208Z,6.46
2019-01-14T13:48:50.556Z,5.83
2019-01-14T13:51:19.200Z,5.63
2019-01-14T13:53:48.127Z,6.20
2019-01-14T13:56:16.762Z,5.62
2019-01-14T13:58:45.390Z,6.08
2019-01-14T14:01:14.093Z,6.43
2019-01-14T14:03:43.102Z,6.16
2019-01-14T14:06:11.738Z,6.24
2019-01-14T14:08:40.375Z,6.92
2019-01-14T14:11:09.036Z,6.45
2019-01-14T14:13:37.690Z,6.32
2019-01-14T14:16:06.343Z,5.57
2019-01-14T14:18:35.003Z,5.16
2019-01-14T14:21:03.659Z,4.76
2019-01-14T14:23:33.433Z,5.03
2019-01-14T14:26:02.635Z,4.89
2019-01-14T14:28:32.379Z,4.38
2019-01-14T14:31:01.012Z,3.53
2019-01-14T14:33:29.694Z,2.88
2019-01-14T14:35:58.311Z,2.78
2019-01-14T14:38:26.943Z,2.67
2019-01-14T14:40:55.596Z,2.58
2019-01-14T14:43:24.598Z,2.61
2019-01-14T14:45:53.256Z,2.59
2019-01-14T14:48:21.910Z,2.65
2019-01-14T14:50:50.545Z,2.64
2019-01-14T14:53:20.287Z,2.61
2019-01-14T14:55:48.960Z,2.59
2019-01-14T14:58:17.590Z,2.52
2019-01-14T15:00:46.302Z,2.46
2019-01-14T15:03:14.967Z,2.42
2019-01-14T15:05:43.612Z,2.40
2019-01-14T15:08:12.559Z,2.40
2019-01-14T15:10:41.276Z,2.45
2019-01-14T15:13:10.005Z,2.55
2019-01-14T15:15:38.663Z,2.58
2019-01-14T15:18:07.387Z,2.55
2019-01-14T15:20:36.063Z,2.48
2019-01-14T15:23:04.705Z,2.43
2019-01-14T15:25:33.351Z,2.37
2019-01-14T15:28:01.984Z,2.27
2019-01-14T15:30:30.942Z,2.19
2019-01-14T15:32:59.591Z,2.05
2019-01-14T15:35:28.244Z,1.96
2019-01-14T15:37:56.878Z,1.94
2019-01-14T15:40:25.704Z,1.83
2019-01-14T15:42:56.188Z,1.83
2019-01-14T15:45:25.460Z,1.86
2019-01-14T15:47:54.098Z,1.90
2019-01-14T15:50:22.874Z,1.92
2019-01-14T15:52:51.583Z,2.05
2019-01-14T15:55:21.320Z,1.97
2019-01-14T15:57:51.472Z,1.91
2019-01-14T16:00:20.548Z,1.91
2019-01-14T16:02:49.326Z,2.01
2019-01-14T16:05:18.098Z,2.00
2019-01-14T16:07:46.769Z,2.01
2019-01-14T16:10:16.690Z,2.04
2019-01-14T16:12:45.341Z,2.02
2019-01-14T16:15:14.371Z,2.02
2019-01-14T16:17:43.185Z,2.02
2019-01-14T16:20:12.966Z,2.04
2019-01-14T16:22:41.687Z,2.12
2019-01-14T16:25:10.319Z,2.28
2019-01-14T16:27:38.955Z,2.32
2019-01-14T16:30:09.877Z,2.40
2019-01-14T16:32:38.521Z,2.43
2019-01-14T16:35:07.158Z,2.46
2019-01-14T16:37:35.827Z,2.48
2019-01-14T16:40:04.904Z,2.55
2019-01-14T16:42:33.611Z,2.59
2019-01-14T16:45:02.339Z,2.63
2019-01-14T16:47:31.266Z,2.60
2019-01-14T16:49:59.974Z,2.60
2019-01-14T16:52:28.660Z,2.59
2019-01-14T16:54:57.314Z,2.56
2019-01-14T16:57:26.017Z,2.48
2019-01-14T16:59:54.670Z,2.52
2019-01-14T17:02:23.318Z,2.55
2019-01-14T17:04:51.946Z,2.56
2019-01-14T17:07:20.676Z,2.57
2019-01-14T17:09:49.647Z,2.57
2019-01-14T17:12:18.274Z,2.54
2019-01-14T17:14:46.944Z,2.48
2019-01-14T17:17:15.576Z,2.44
2019-01-14T17:19:44.371Z,2.42
2019-01-14T17:22:13.419Z,2.39
2019-01-14T17:24:42.044Z,2.28
2019-01-14T17:27:10.768Z,2.28
2019-01-14T17:29:39.408Z,2.26
2019-01-14T17:32:08.057Z,2.17
2019-01-14T17:34:36.727Z,2.12
2019-01-14T17:37:05.435Z,2.19
2019-01-14T17:39:34.295Z,2.28
2019-01-14T17:42:03.202Z,2.24
2019-01-14T17:44:31.845Z,2.21
2019-01-14T17:47:00.481Z,2.13
2019-01-14T17:49:29.182Z,2.09
2019-01-14T17:51:58.018Z,2.11
2019-01-14T17:54:26.680Z,2.17
2019-01-14T17:56:55.504Z,2.20
2019-01-14T17:59:24.206Z,2.14
2019-01-14T18:01:52.846Z,2.17
2019-01-14T18:04:21.550Z,2.26
2019-01-14T18:06:50.222Z,2.27
2019-01-14T18:09:18.900Z,2.25
2019-01-14T18:11:47.876Z,2.13
2019-01-14T18:14:16.678Z,2.10
2019-01-14T18:16:45.320Z,2.04
2019-01-14T18:19:13.994Z,1.98
2019-01-14T18:21:42.825Z,1.96
2019-01-14T18:24:12.983Z,1.87
2019-01-14T18:26:41.717Z,1.73
2019-01-14T18:29:10.365Z,1.60
2019-01-14T18:31:39.111Z,1.48
2019-01-14T18:34:10.614Z,1.39
2019-01-14T18:36:39.297Z,1.34
2019-01-14T18:39:08.474Z,1.22
2019-01-14T18:41:37.211Z,1.18
2019-01-14T18:44:06.000Z,1.19
2019-01-14T18:46:36.065Z,1.25
2019-01-14T18:49:04.982Z,1.27
2019-01-14T18:51:33.865Z,1.35
2019-01-14T18:54:02.664Z,1.35
2019-01-14T18:56:31.912Z,1.31
2019-01-14T18:59:00.750Z,1.30
2019-01-14T19:01:29.484Z,1.36
2019-01-14T19:03:58.154Z,1.29
2019-01-14T19:06:27.040Z,1.27
2019-01-14T19:08:55.834Z,1.24
2019-01-14T19:11:24.473Z,1.19
2019-01-14T19:13:53.196Z,1.21
2019-01-14T19:16:21.852Z,1.21
2019-01-14T19:18:51.305Z,1.18
2019-01-14T19:21:20.021Z,1.24
2019-01-14T19:23:48.667Z,1.39
2019-01-14T19:26:17.328Z,1.44
2019-01-14T19:28:46.086Z,1.62
2019-01-14T19:31:15.001Z,1.68
2019-01-14T19:33:44.259Z,1.74
2019-01-14T19:36:12.971Z,1.78
2019-01-14T19:38:41.631Z,1.77
2019-01-14T19:41:10.340Z,1.79
2019-01-14T19:43:39.335Z,1.83
2019-01-14T19:46:08.431Z,1.79
2019-01-14T19:48:37.157Z,1.84
2019-01-14T19:51:05.819Z,1.86
2019-01-14T19:53:34.533Z,1.88
2019-01-14T19:56:03.710Z,1.91
2019-01-14T19:58:32.428Z,1.93
2019-01-14T20:01:01.206Z,1.93
2019-01-14T20:03:31.020Z,1.95
2019-01-14T20:05:59.726Z,1.98
2019-01-14T20:08:28.662Z,1.98
2019-01-14T20:10:57.414Z,2.06
2019-01-14T20:13:26.434Z,2.08
2019-01-14T20:15:55.066Z,2.08
2019-01-14T20:18:23.989Z,2.06
2019-01-14T20:20:52.626Z,1.96
2019-01-14T20:23:21.643Z,1.98
2019-01-14T20:25:50.290Z,2.00
2019-01-14T20:28:19.015Z,1.96
2019-01-14T20:30:47.704Z,1.92
2019-01-14T20:33:19.535Z,1.82
2019-01-14T20:35:46.868Z,1.80
2019-01-14T20:38:15.515Z,1.73
2019-01-14T20:40:44.289Z,1.78
2019-01-14T20:43:13.223Z,1.81
2019-01-14T20:45:42.315Z,1.84
2019-01-14T20:48:11.218Z,1.87
2019-01-14T20:50:40.830Z,1.88
2019-01-14T20:53:13.663Z,1.86
2019-01-14T20:55:40.048Z,1.91
2019-01-14T20:58:08.797Z,1.93
2019-01-14T21:00:38.814Z,1.93
2019-01-14T21:03:07.483Z,1.93
2019-01-14T21:05:36.155Z,1.94
2019-01-14T21:08:04.959Z,2.00
2019-01-14T21:10:33.609Z,1.94
2019-01-14T21:13:02.340Z,2.03
2019-01-14T21:15:30.984Z,2.04
2019-01-14T21:17:59.848Z,2.05
2019-01-14T21:20:28.781Z,2.04
2019-01-14T21:22:57.696Z,2.07
2019-01-14T21:25:26.460Z,1.95
2019-01-14T21:27:55.250Z,1.89
2019-01-14T21:30:25.188Z,1.83
2019-01-14T21:32:54.929Z,1.74
2019-01-14T21:35:23.592Z,1.53
2019-01-14T21:37:53.552Z,1.41
2019-01-14T21:40:22.461Z,1.27
2019-01-14T21:42:51.601Z,1.24
2019-01-14T21:45:21.832Z,1.24
2019-01-14T21:47:50.604Z,1.14
2019-01-14T21:50:19.520Z,1.13
2019-01-14T21:52:48.672Z,1.02
2019-01-14T21:55:18.442Z,0.92
2019-01-14T21:57:47.159Z,0.93
2019-01-14T22:00:17.127Z,0.89
2019-01-14T22:02:46.007Z,0.89
2019-01-14T22:05:14.733Z,0.92
2019-01-14T22:07:43.405Z,0.89
2019-01-14T22:10:13.565Z,0.84
2019-01-14T22:12:42.297Z,0.78
2019-01-14T22:15:11.083Z,0.71
2019-01-14T22:17:39.940Z,0.67
2019-01-14T22:20:10.680Z,0.60
2019-01-14T22:22:40.635Z,0.56
2019-01-14T22:25:09.403Z,0.53
2019-01-14T22:27:38.094Z,0.50
2019-01-14T22:30:08.034Z,0.51
2019-01-14T22:32:36.900Z,0.57
2019-01-14T22:35:05.926Z,0.59
2019-01-14T22:37:35.128Z,0.69
2019-01-14T22:40:04.744Z,0.74
2019-01-14T22:42:33.380Z,0.80
2019-01-14T22:45:03.271Z,0.85
2019-01-14T22:47:32.063Z,0.93
2019-01-14T22:50:00.692Z,1.02
2019-01-14T22:52:29.427Z,1.02
2019-01-14T22:54:58.389Z,1.03
2019-01-14T22:57:27.015Z,1.00
2019-01-14T22:59:56.736Z,1.06
2019-01-14T23:02:25.775Z,1.09
2019-01-14T23:04:54.607Z,1.11
2019-01-14T23:07:23.268Z,1.08
2019-01-14T23:09:51.946Z,1.10
2019-01-14T23:12:20.663Z,1.07
2019-01-14T23:14:49.445Z,0.97
2019-01-14T23:17:18.075Z,1.02
2019-01-14T23:19:46.739Z,1.04
2019-01-14T23:22:15.393Z,1.00
2019-01-14T23:24:44.038Z,1.00
2019-01-14T23:27:12.685Z,0.92
2019-01-14T23:29:41.340Z,0.93
2019-01-14T23:32:10.045Z,0.93
2019-01-14T23:34:38.834Z,0.91
2019-01-14T23:37:07.530Z,0.87
2019-01-14T23:39:36.172Z,0.87
2019-01-14T23:42:04.986Z,0.90
2019-01-14T23:44:34.814Z,0.90
2019-01-14T23:47:03.524Z,0.93
2019-01-14T23:49:32.336Z,0.89
2019-01-14T23:52:00.979Z,0.94
2019-01-14T23:54:36.743Z,0.94
2019-01-14T23:56:59.948Z,0.89
2019-01-14T23:59:28.596Z,0.94
